首页
METAR-TAF:

METAR-TAF

机场 :

巴塞尔-米卢斯-弗赖堡欧洲机场

巴塞尔-米卢斯-弗赖堡欧洲机场, 法国

纬度: 47-36N, 经度: 007-31E, 海拔: 270米

当前天气观测

该预报发布于14分钟前的12:00 UTC
风速6节,风向
温度 2°C
湿度 87%
气压 1011 hPa
能见度10公里或以上
多云层高于5300英尺
小雨

METAR: LFSB 111200Z 17006KT 9999 -RA BKN053 02/00 Q1011 NOSIG

时间: 13:14 (12:14 UTC)

预报

该预报发布于30分钟前的11:44 UTC
预报有效从11日的 12点(UTC)到 12日的 12点(UTC)
风速8节,风向南转南东
能见度10公里或以上
多云层高于5000英尺
短暂存在
从 11日的 12点(UTC)到 11日的 21点(UTC)
成为
从 12日的 02点(UTC)到 12日的 04点(UTC)
风速10节,风向西
几率 30% :
短暂存在
从 12日的 02点(UTC)到 12日的 08点(UTC)
多云层高于1400英尺
少量云层高于2000英尺, 塔状积云.
小阵雨

TAF: LFSB 111144Z 1112/1212 15008KT 9999 BKN050 TEMPO 1112/1121 RA BECMG 1202/1204 26010KT PROB30 TEMPO 1202/1208 -SHRA BKN014 FEW020TCU

超过4000个机场的气象观测和天气预报(METAR&TAF报告)。

可查询的气象台以黄色和红色小点在地图上表示。

将鼠标移到小点上方,可查看气象台名称。

然后点击查看天气观测和预报。

如需切换地图:点击带黑十字的绿色按钮放大地图;点击带横线的绿色按钮缩小地图;或者点击绿色箭头查看邻近地区的地图。


METAR-TAF: